sensor_id;sensor_type;location;lat;lon;timestamp;P1;durP1;ratioP1;P2;durP2;ratioP2
15573;SDS011;7888;46.748;8.102;2024-02-16T15:02:02;1.10;;;1.00;;
15573;SDS011;7888;46.748;8.102;2024-02-16T15:04:28;0.77;;;0.75;;
15573;SDS011;7888;46.748;8.102;2024-02-16T15:06:55;1.23;;;0.88;;
15573;SDS011;7888;46.748;8.102;2024-02-16T15:09:21;2.38;;;1.00;;
15573;SDS011;7888;46.748;8.102;2024-02-16T15:11:47;1.80;;;1.30;;
15573;SDS011;7888;46.748;8.102;2024-02-16T15:14:13;14.70;;;13.27;;
15573;SDS011;7888;46.748;8.102;2024-02-16T15:16:38;7.13;;;6.53;;
15573;SDS011;7888;46.748;8.102;2024-02-16T15:19:04;9.30;;;8.48;;
15573;SDS011;7888;46.748;8.102;2024-02-16T15:21:30;9.52;;;8.63;;
15573;SDS011;7888;46.748;8.102;2024-02-16T15:23:55;12.80;;;10.68;;
15573;SDS011;7888;46.748;8.102;2024-02-16T15:26:21;8.98;;;8.15;;
15573;SDS011;7888;46.748;8.102;2024-02-16T15:28:47;3.90;;;3.60;;
15573;SDS011;7888;46.748;8.102;2024-02-16T15:31:13;3.47;;;3.15;;
15573;SDS011;7888;46.748;8.102;2024-02-16T15:33:39;3.28;;;2.35;;
15573;SDS011;7888;46.748;8.102;2024-02-16T15:36:04;2.85;;;1.90;;
15573;SDS011;7888;46.748;8.102;2024-02-16T15:38:30;3.72;;;2.70;;
15573;SDS011;7888;46.748;8.102;2024-02-16T15:40:56;2.75;;;1.95;;
15573;SDS011;7888;46.748;8.102;2024-02-16T15:43:23;1.75;;;1.63;;
15573;SDS011;7888;46.748;8.102;2024-02-16T15:45:49;3.70;;;3.38;;
15573;SDS011;7888;46.748;8.102;2024-02-16T15:48:16;2.30;;;2.10;;
15573;SDS011;7888;46.748;8.102;2024-02-16T15:50:42;3.05;;;2.00;;
15573;SDS011;7888;46.748;8.102;2024-02-16T15:53:08;3.00;;;2.40;;
15573;SDS011;7888;46.748;8.102;2024-02-16T15:55:34;2.67;;;2.08;;
15573;SDS011;7888;46.748;8.102;2024-02-16T15:58:00;3.65;;;3.35;;
15573;SDS011;7888;46.748;8.102;2024-02-16T16:00:26;2.50;;;2.30;;
15573;SDS011;7888;46.748;8.102;2024-02-16T16:02:52;3.33;;;3.03;;
15573;SDS011;7888;46.748;8.102;2024-02-16T16:05:19;2.88;;;2.53;;
15573;SDS011;7888;46.748;8.102;2024-02-16T16:07:45;2.08;;;1.70;;
15573;SDS011;7888;46.748;8.102;2024-02-16T16:10:11;2.78;;;2.58;;
15573;SDS011;7888;46.748;8.102;2024-02-16T16:12:41;4.55;;;3.03;;
15573;SDS011;7888;46.748;8.102;2024-02-16T16:15:07;3.10;;;2.70;;
15573;SDS011;7888;46.748;8.102;2024-02-16T16:17:33;4.30;;;2.65;;
15573;SDS011;7888;46.748;8.102;2024-02-16T16:19:59;3.77;;;2.30;;
15573;SDS011;7888;46.748;8.102;2024-02-16T16:22:25;4.38;;;2.05;;
15573;SDS011;7888;46.748;8.102;2024-02-16T16:24:51;7.53;;;2.88;;
15573;SDS011;7888;46.748;8.102;2024-02-16T16:27:18;5.55;;;4.35;;
15573;SDS011;7888;46.748;8.102;2024-02-16T16:29:44;4.63;;;4.07;;
15573;SDS011;7888;46.748;8.102;2024-02-16T16:32:09;4.60;;;3.80;;
15573;SDS011;7888;46.748;8.102;2024-02-16T16:34:36;5.22;;;3.53;;
15573;SDS011;7888;46.748;8.102;2024-02-16T16:37:03;4.77;;;3.67;;
15573;SDS011;7888;46.748;8.102;2024-02-16T16:39:28;4.75;;;4.00;;
15573;SDS011;7888;46.748;8.102;2024-02-16T16:41:54;5.93;;;4.47;;
15573;SDS011;7888;46.748;8.102;2024-02-16T16:44:20;6.97;;;4.93;;
15573;SDS011;7888;46.748;8.102;2024-02-16T16:46:47;5.50;;;4.03;;
15573;SDS011;7888;46.748;8.102;2024-02-16T16:49:14;3.57;;;3.20;;
15573;SDS011;7888;46.748;8.102;2024-02-16T16:51:41;4.07;;;2.83;;
15573;SDS011;7888;46.748;8.102;2024-02-16T16:54:07;4.57;;;2.73;;
15573;SDS011;7888;46.748;8.102;2024-02-16T16:56:34;3.20;;;2.53;;
15573;SDS011;7888;46.748;8.102;2024-02-16T16:58:59;3.50;;;2.70;;
15573;SDS011;7888;46.748;8.102;2024-02-16T17:01:26;3.23;;;2.67;;
15573;SDS011;7888;46.748;8.102;2024-02-16T17:03:53;4.53;;;2.53;;
15573;SDS011;7888;46.748;8.102;2024-02-16T17:06:19;3.37;;;2.47;;
15573;SDS011;7888;46.748;8.102;2024-02-16T17:08:45;3.47;;;2.70;;
15573;SDS011;7888;46.748;8.102;2024-02-16T17:11:11;6.00;;;3.03;;
15573;SDS011;7888;46.748;8.102;2024-02-16T17:13:37;3.73;;;2.60;;
15573;SDS011;7888;46.748;8.102;2024-02-16T17:16:04;5.33;;;3.40;;
15573;SDS011;7888;46.748;8.102;2024-02-16T17:18:30;4.27;;;3.70;;
15573;SDS011;7888;46.748;8.102;2024-02-16T17:20:59;4.33;;;3.90;;
15573;SDS011;7888;46.748;8.102;2024-02-16T17:23:26;3.77;;;3.33;;
15573;SDS011;7888;46.748;8.102;2024-02-16T17:25:53;4.90;;;2.57;;
15573;SDS011;7888;46.748;8.102;2024-02-16T17:28:19;4.93;;;2.40;;
15573;SDS011;7888;46.748;8.102;2024-02-16T17:30:45;3.70;;;2.20;;
15573;SDS011;7888;46.748;8.102;2024-02-16T17:33:11;4.13;;;2.27;;
15573;SDS011;7888;46.748;8.102;2024-02-16T17:35:38;5.07;;;2.80;;
15573;SDS011;7888;46.748;8.102;2024-02-16T17:38:06;6.10;;;4.47;;
15573;SDS011;7888;46.748;8.102;2024-02-16T17:40:33;6.57;;;4.73;;
15573;SDS011;7888;46.748;8.102;2024-02-16T17:42:58;6.30;;;5.47;;
15573;SDS011;7888;46.748;8.102;2024-02-16T17:45:26;5.60;;;4.73;;
15573;SDS011;7888;46.748;8.102;2024-02-16T17:47:52;4.67;;;3.83;;
15573;SDS011;7888;46.748;8.102;2024-02-16T17:50:18;4.07;;;3.20;;
15573;SDS011;7888;46.748;8.102;2024-02-16T17:52:44;3.37;;;2.60;;
15573;SDS011;7888;46.748;8.102;2024-02-16T17:55:10;2.40;;;1.60;;
15573;SDS011;7888;46.748;8.102;2024-02-16T17:57:36;2.07;;;1.50;;
15573;SDS011;7888;46.748;8.102;2024-02-16T18:00:02;4.30;;;1.90;;
15573;SDS011;7888;46.748;8.102;2024-02-16T18:02:30;3.57;;;1.90;;
15573;SDS011;7888;46.748;8.102;2024-02-16T18:04:56;2.27;;;1.90;;
15573;SDS011;7888;46.748;8.102;2024-02-16T18:07:22;2.53;;;1.90;;
15573;SDS011;7888;46.748;8.102;2024-02-16T18:09:48;2.40;;;1.70;;
15573;SDS011;7888;46.748;8.102;2024-02-16T18:12:14;1.50;;;1.40;;
15573;SDS011;7888;46.748;8.102;2024-02-16T18:14:43;3.73;;;1.43;;
15573;SDS011;7888;46.748;8.102;2024-02-16T18:17:12;2.17;;;1.30;;
15573;SDS011;7888;46.748;8.102;2024-02-16T18:19:40;1.23;;;1.10;;
15573;SDS011;7888;46.748;8.102;2024-02-16T18:22:10;1.83;;;1.30;;
15573;SDS011;7888;46.748;8.102;2024-02-16T18:24:36;2.63;;;1.63;;
15573;SDS011;7888;46.748;8.102;2024-02-16T18:27:02;3.97;;;1.80;;
15573;SDS011;7888;46.748;8.102;2024-02-16T18:29:31;2.20;;;1.60;;
15573;SDS011;7888;46.748;8.102;2024-02-16T18:31:58;1.93;;;1.53;;
15573;SDS011;7888;46.748;8.102;2024-02-16T18:34:24;1.97;;;1.40;;
15573;SDS011;7888;46.748;8.102;2024-02-16T18:36:51;2.17;;;1.63;;
15573;SDS011;7888;46.748;8.102;2024-02-16T18:39:20;2.40;;;2.20;;
15573;SDS011;7888;46.748;8.102;2024-02-16T18:41:48;2.60;;;2.40;;
15573;SDS011;7888;46.748;8.102;2024-02-16T18:44:14;2.90;;;2.10;;
15573;SDS011;7888;46.748;8.102;2024-02-16T18:46:40;2.33;;;2.13;;
15573;SDS011;7888;46.748;8.102;2024-02-16T18:49:07;2.03;;;1.80;;
15573;SDS011;7888;46.748;8.102;2024-02-16T18:51:34;2.77;;;2.10;;
15573;SDS011;7888;46.748;8.102;2024-02-16T18:54:00;4.17;;;2.07;;
15573;SDS011;7888;46.748;8.102;2024-02-16T18:56:31;3.03;;;2.40;;
15573;SDS011;7888;46.748;8.102;2024-02-16T18:58:57;2.83;;;2.60;;
15573;SDS011;7888;46.748;8.102;2024-02-16T19:01:23;3.43;;;2.27;;
15573;SDS011;7888;46.748;8.102;2024-02-16T19:03:48;3.07;;;2.33;;
15573;SDS011;7888;46.748;8.102;2024-02-16T19:06:14;2.53;;;1.87;;
15573;SDS011;7888;46.748;8.102;2024-02-16T19:08:40;3.30;;;1.93;;
15573;SDS011;7888;46.748;8.102;2024-02-16T19:11:07;2.77;;;2.43;;
15573;SDS011;7888;46.748;8.102;2024-02-16T19:13:33;2.50;;;2.30;;
15573;SDS011;7888;46.748;8.102;2024-02-16T19:15:59;5.60;;;2.93;;
15573;SDS011;7888;46.748;8.102;2024-02-16T19:18:28;4.43;;;2.93;;
15573;SDS011;7888;46.748;8.102;2024-02-16T19:20:55;6.53;;;3.30;;
15573;SDS011;7888;46.748;8.102;2024-02-16T19:23:22;4.10;;;2.60;;
15573;SDS011;7888;46.748;8.102;2024-02-16T19:25:49;4.23;;;2.40;;
15573;SDS011;7888;46.748;8.102;2024-02-16T19:28:14;3.37;;;2.07;;
15573;SDS011;7888;46.748;8.102;2024-02-16T19:30:41;4.73;;;1.90;;
15573;SDS011;7888;46.748;8.102;2024-02-16T19:33:07;3.63;;;1.90;;
15573;SDS011;7888;46.748;8.102;2024-02-16T19:35:34;2.70;;;1.80;;
15573;SDS011;7888;46.748;8.102;2024-02-16T19:38:01;3.50;;;2.07;;
15573;SDS011;7888;46.748;8.102;2024-02-16T19:40:27;3.77;;;1.97;;
15573;SDS011;7888;46.748;8.102;2024-02-16T19:42:53;3.07;;;1.70;;
15573;SDS011;7888;46.748;8.102;2024-02-16T19:45:19;4.60;;;2.23;;
15573;SDS011;7888;46.748;8.102;2024-02-16T19:47:45;4.30;;;2.20;;
15573;SDS011;7888;46.748;8.102;2024-02-16T19:50:11;3.57;;;1.97;;
15573;SDS011;7888;46.748;8.102;2024-02-16T19:52:37;2.00;;;1.80;;
15573;SDS011;7888;46.748;8.102;2024-02-16T19:55:04;3.57;;;1.87;;
15573;SDS011;7888;46.748;8.102;2024-02-16T19:57:30;2.93;;;1.90;;
15573;SDS011;7888;46.748;8.102;2024-02-16T19:59:57;2.93;;;1.80;;
15573;SDS011;7888;46.748;8.102;2024-02-16T20:02:23;2.60;;;1.83;;
15573;SDS011;7888;46.748;8.102;2024-02-16T20:04:49;3.00;;;2.30;;
15573;SDS011;7888;46.748;8.102;2024-02-16T20:07:18;5.77;;;3.77;;
15573;SDS011;7888;46.748;8.102;2024-02-16T20:09:48;8.17;;;3.67;;
15573;SDS011;7888;46.748;8.102;2024-02-16T20:12:17;6.30;;;4.67;;
15573;SDS011;7888;46.748;8.102;2024-02-16T20:14:43;6.57;;;5.53;;
15573;SDS011;7888;46.748;8.102;2024-02-16T20:17:09;6.33;;;4.80;;
15573;SDS011;7888;46.748;8.102;2024-02-16T20:19:35;5.67;;;3.87;;
15573;SDS011;7888;46.748;8.102;2024-02-16T20:22:02;4.50;;;3.77;;
15573;SDS011;7888;46.748;8.102;2024-02-16T20:24:27;4.63;;;3.90;;
15573;SDS011;7888;46.748;8.102;2024-02-16T20:26:54;3.33;;;2.50;;
15573;SDS011;7888;46.748;8.102;2024-02-16T20:29:20;3.07;;;2.60;;
15573;SDS011;7888;46.748;8.102;2024-02-16T20:31:47;2.83;;;2.53;;
15573;SDS011;7888;46.748;8.102;2024-02-16T20:34:14;2.60;;;2.20;;
15573;SDS011;7888;46.748;8.102;2024-02-16T20:36:40;2.87;;;2.10;;
15573;SDS011;7888;46.748;8.102;2024-02-16T20:39:07;2.43;;;1.73;;
15573;SDS011;7888;46.748;8.102;2024-02-16T20:41:36;3.33;;;1.80;;
15573;SDS011;7888;46.748;8.102;2024-02-16T20:44:02;2.60;;;1.50;;
15573;SDS011;7888;46.748;8.102;2024-02-16T20:46:28;3.03;;;1.83;;
15573;SDS011;7888;46.748;8.102;2024-02-16T20:48:54;3.23;;;1.60;;
15573;SDS011;7888;46.748;8.102;2024-02-16T20:51:20;2.27;;;1.60;;
15573;SDS011;7888;46.748;8.102;2024-02-16T20:53:45;3.60;;;1.80;;
15573;SDS011;7888;46.748;8.102;2024-02-16T20:56:11;3.63;;;2.00;;
15573;SDS011;7888;46.748;8.102;2024-02-16T20:58:40;2.47;;;2.00;;
15573;SDS011;7888;46.748;8.102;2024-02-16T21:01:06;3.30;;;2.20;;
15573;SDS011;7888;46.748;8.102;2024-02-16T21:03:33;2.93;;;2.03;;
15573;SDS011;7888;46.748;8.102;2024-02-16T21:05:59;2.90;;;1.87;;
15573;SDS011;7888;46.748;8.102;2024-02-16T21:08:24;2.57;;;1.97;;
15573;SDS011;7888;46.748;8.102;2024-02-16T21:10:50;2.47;;;1.97;;
15573;SDS011;7888;46.748;8.102;2024-02-16T21:13:16;2.30;;;1.60;;
15573;SDS011;7888;46.748;8.102;2024-02-16T21:15:42;2.53;;;1.83;;
15573;SDS011;7888;46.748;8.102;2024-02-16T21:18:07;3.33;;;2.00;;
15573;SDS011;7888;46.748;8.102;2024-02-16T21:20:33;2.40;;;1.90;;
15573;SDS011;7888;46.748;8.102;2024-02-16T21:22:59;4.23;;;2.47;;
15573;SDS011;7888;46.748;8.102;2024-02-16T21:25:25;2.77;;;1.77;;
15573;SDS011;7888;46.748;8.102;2024-02-16T21:27:50;3.20;;;1.90;;
15573;SDS011;7888;46.748;8.102;2024-02-16T21:30:16;2.10;;;1.83;;
15573;SDS011;7888;46.748;8.102;2024-02-16T21:32:42;2.40;;;1.77;;
15573;SDS011;7888;46.748;8.102;2024-02-16T21:35:08;2.60;;;1.80;;
15573;SDS011;7888;46.748;8.102;2024-02-16T21:37:34;2.10;;;1.60;;
15573;SDS011;7888;46.748;8.102;2024-02-16T21:40:00;1.40;;;1.30;;
15573;SDS011;7888;46.748;8.102;2024-02-16T21:42:27;2.77;;;1.53;;
15573;SDS011;7888;46.748;8.102;2024-02-16T21:44:53;1.97;;;1.50;;
15573;SDS011;7888;46.748;8.102;2024-02-16T21:47:18;2.00;;;1.37;;
15573;SDS011;7888;46.748;8.102;2024-02-16T21:49:44;2.20;;;1.40;;
15573;SDS011;7888;46.748;8.102;2024-02-16T21:52:11;2.63;;;1.47;;
15573;SDS011;7888;46.748;8.102;2024-02-16T21:54:37;3.90;;;1.40;;
15573;SDS011;7888;46.748;8.102;2024-02-16T21:57:03;1.90;;;1.30;;
15573;SDS011;7888;46.748;8.102;2024-02-16T21:59:29;2.10;;;1.30;;
15573;SDS011;7888;46.748;8.102;2024-02-16T22:01:55;1.97;;;1.50;;
15573;SDS011;7888;46.748;8.102;2024-02-16T22:04:20;2.17;;;1.30;;
15573;SDS011;7888;46.748;8.102;2024-02-16T22:06:46;1.90;;;1.50;;
15573;SDS011;7888;46.748;8.102;2024-02-16T22:09:12;2.73;;;1.80;;
15573;SDS011;7888;46.748;8.102;2024-02-16T22:11:38;2.40;;;1.90;;
15573;SDS011;7888;46.748;8.102;2024-02-16T22:14:06;1.60;;;1.40;;
15573;SDS011;7888;46.748;8.102;2024-02-16T22:16:32;2.10;;;1.33;;
15573;SDS011;7888;46.748;8.102;2024-02-16T22:18:57;1.63;;;1.30;;
15573;SDS011;7888;46.748;8.102;2024-02-16T22:21:23;2.10;;;1.40;;
15573;SDS011;7888;46.748;8.102;2024-02-16T22:23:49;1.90;;;1.23;;
15573;SDS011;7888;46.748;8.102;2024-02-16T22:26:21;1.90;;;1.17;;
15573;SDS011;7888;46.748;8.102;2024-02-16T22:28:47;3.60;;;1.50;;
15573;SDS011;7888;46.748;8.102;2024-02-16T22:31:12;2.10;;;1.63;;
15573;SDS011;7888;46.748;8.102;2024-02-16T22:33:38;2.23;;;1.50;;
15573;SDS011;7888;46.748;8.102;2024-02-16T22:36:04;2.87;;;1.40;;
15573;SDS011;7888;46.748;8.102;2024-02-16T22:38:30;2.20;;;1.57;;
15573;SDS011;7888;46.748;8.102;2024-02-16T22:40:57;1.67;;;1.40;;
15573;SDS011;7888;46.748;8.102;2024-02-16T22:43:23;2.70;;;1.40;;
15573;SDS011;7888;46.748;8.102;2024-02-16T22:45:49;2.40;;;1.30;;
15573;SDS011;7888;46.748;8.102;2024-02-16T22:48:16;1.67;;;1.27;;
15573;SDS011;7888;46.748;8.102;2024-02-16T22:50:42;2.40;;;1.33;;
15573;SDS011;7888;46.748;8.102;2024-02-16T22:53:08;1.57;;;1.47;;
15573;SDS011;7888;46.748;8.102;2024-02-16T22:55:35;2.87;;;1.50;;
15573;SDS011;7888;46.748;8.102;2024-02-16T22:58:04;4.00;;;1.40;;
15573;SDS011;7888;46.748;8.102;2024-02-16T23:00:33;2.70;;;1.77;;
15573;SDS011;7888;46.748;8.102;2024-02-16T23:03:05;1.87;;;1.50;;
15573;SDS011;7888;46.748;8.102;2024-02-16T23:05:32;1.97;;;1.53;;
15573;SDS011;7888;46.748;8.102;2024-02-16T23:07:58;2.97;;;1.77;;
15573;SDS011;7888;46.748;8.102;2024-02-16T23:10:25;1.43;;;1.30;;
15573;SDS011;7888;46.748;8.102;2024-02-16T23:12:51;1.73;;;1.47;;
15573;SDS011;7888;46.748;8.102;2024-02-16T23:15:18;2.00;;;1.30;;
15573;SDS011;7888;46.748;8.102;2024-02-16T23:17:45;2.80;;;1.57;;
15573;SDS011;7888;46.748;8.102;2024-02-16T23:20:12;3.57;;;1.73;;
15573;SDS011;7888;46.748;8.102;2024-02-16T23:25:46;2.47;;;1.60;;
15573;SDS011;7888;46.748;8.102;2024-02-16T23:28:12;2.17;;;1.60;;
15573;SDS011;7888;46.748;8.102;2024-02-16T23:30:41;2.47;;;1.73;;
15573;SDS011;7888;46.748;8.102;2024-02-16T23:33:07;1.80;;;1.47;;
15573;SDS011;7888;46.748;8.102;2024-02-16T23:35:35;3.00;;;1.60;;
15573;SDS011;7888;46.748;8.102;2024-02-16T23:38:01;2.73;;;1.73;;
15573;SDS011;7888;46.748;8.102;2024-02-16T23:40:28;1.80;;;1.67;;
15573;SDS011;7888;46.748;8.102;2024-02-16T23:42:54;2.67;;;1.77;;
15573;SDS011;7888;46.748;8.102;2024-02-16T23:45:20;2.20;;;1.67;;
15573;SDS011;7888;46.748;8.102;2024-02-16T23:47:46;1.53;;;1.40;;
15573;SDS011;7888;46.748;8.102;2024-02-16T23:50:13;1.73;;;1.60;;
15573;SDS011;7888;46.748;8.102;2024-02-16T23:52:39;4.13;;;1.60;;
15573;SDS011;7888;46.748;8.102;2024-02-16T23:55:07;3.07;;;1.87;;
15573;SDS011;7888;46.748;8.102;2024-02-16T23:57:35;2.77;;;1.50;;
